Time;durP1;ratioP1;P1;durP2;ratioP2;P2;SDS_P1;SDS_P2;PMS_P1;PMS_P2;Temp;Humidity;BMP_temperature;BMP_pressure;BME280_temperature;BME280_humidity;BME280_pressure;Samples;Min_cycle;Max_cycle;Signal;HPM_P1;HPM_P2
2022/01/31 00:01:01;;;;;;;11.53;4.33;;;;;;;;;;5116231;28;20063;-57
2022/01/31 00:03:30;;;;;;;13.87;4.13;;;;;;;;;;5116027;28;20028;-57
2022/01/31 00:05:55;;;;;;;8.53;3.87;;;;;;;;;;5116291;28;20051;-56
2022/01/31 00:08:23;;;;;;;9.70;4.67;;;;;;;;;;5100926;28;20520;-55
2022/01/31 00:10:50;;;;;;;6.90;3.30;;;;;;;;;;5095847;28;20036;-57
2022/01/31 00:13:38;;;;;;;13.67;4.47;;;;;;;;;;5095880;28;20024;-57
2022/01/31 00:16:05;;;;;;;13.87;3.40;;;;;;;;;;5095517;28;20028;-56
2022/01/31 00:18:31;;;;;;;4.70;3.33;;;;;;;;;;5095309;28;20354;-55
2022/01/31 00:20:57;;;;;;;8.33;3.83;;;;;;;;;;5095664;28;20036;-57
2022/01/31 00:23:23;;;;;;;15.20;3.93;;;;;;;;;;5095938;28;20043;-57
2022/01/31 00:25:49;;;;;;;15.77;4.53;;;;;;;;;;5095358;28;20024;-57
2022/01/31 00:28:15;;;;;;;12.03;3.00;;;;;;;;;;5094871;28;20043;-57
2022/01/31 00:30:41;;;;;;;5.20;2.87;;;;;;;;;;5095341;28;20534;-57
2022/01/31 00:33:07;;;;;;;6.17;3.43;;;;;;;;;;5095615;28;20032;-57
2022/01/31 00:35:33;;;;;;;6.67;3.63;;;;;;;;;;5095125;28;20397;-55
2022/01/31 00:37:59;;;;;;;10.17;4.10;;;;;;;;;;5094832;28;20028;-55
2022/01/31 00:40:25;;;;;;;8.57;3.47;;;;;;;;;;5095098;28;20416;-58
2022/01/31 00:42:51;;;;;;;6.47;3.47;;;;;;;;;;5094765;28;20114;-57
2022/01/31 00:45:24;;;;;;;8.43;3.43;;;;;;;;;;5095428;28;20454;-57
2022/01/31 00:48:00;;;;;;;11.27;4.73;;;;;;;;;;5094569;28;20461;-57
2022/01/31 00:50:26;;;;;;;5.13;2.83;;;;;;;;;;5095109;28;20381;-58
2022/01/31 00:52:52;;;;;;;5.53;3.50;;;;;;;;;;5097671;28;20028;-58
2022/01/31 00:55:18;;;;;;;4.80;2.40;;;;;;;;;;5115374;28;20038;-57
2022/01/31 00:57:44;;;;;;;13.10;4.03;;;;;;;;;;5114965;28;20051;-56
2022/01/31 01:00:15;;;;;;;6.93;3.63;;;;;;;;;;5115040;28;20036;-57
2022/01/31 01:02:41;;;;;;;11.87;3.57;;;;;;;;;;5115305;28;20051;-57
2022/01/31 01:05:07;;;;;;;8.37;3.67;;;;;;;;;;5115267;28;20053;-55
2022/01/31 01:07:33;;;;;;;8.50;3.17;;;;;;;;;;5106982;28;20098;-57
2022/01/31 01:09:59;;;;;;;12.50;3.57;;;;;;;;;;5093931;28;20115;-55
2022/01/31 01:12:25;;;;;;;17.00;4.90;;;;;;;;;;5094533;28;20477;-58
2022/01/31 01:14:52;;;;;;;9.03;4.30;;;;;;;;;;5094839;28;20028;-58
2022/01/31 01:17:18;;;;;;;10.07;4.10;;;;;;;;;;5094706;28;20386;-57
2022/01/31 01:19:44;;;;;;;7.93;3.60;;;;;;;;;;5093953;28;20492;-58
2022/01/31 01:22:11;;;;;;;11.73;4.13;;;;;;;;;;5094234;28;20411;-56
2022/01/31 01:24:37;;;;;;;14.67;4.27;;;;;;;;;;5093996;28;20036;-56
2022/01/31 01:27:08;;;;;;;5.40;3.60;;;;;;;;;;5094749;28;20059;-57
2022/01/31 01:29:34;;;;;;;6.90;5.03;;;;;;;;;;5093866;28;20071;-57
2022/01/31 01:32:00;;;;;;;6.03;3.53;;;;;;;;;;5094301;28;20430;-57
2022/01/31 01:34:31;;;;;;;15.53;4.97;;;;;;;;;;5094226;28;20465;-57
2022/01/31 01:36:56;;;;;;;;;;;;;;;;;;5094388;28;20474;-56
2022/01/31 01:39:23;;;;;;;9.90;3.70;;;;;;;;;;5093234;28;19908;-58
2022/01/31 01:41:49;;;;;;;8.43;3.60;;;;;;;;;;5094118;28;20030;-58
2022/01/31 01:44:15;;;;;;;9.90;4.50;;;;;;;;;;5094162;28;20063;-58
2022/01/31 01:46:41;;;;;;;13.10;4.67;;;;;;;;;;5094181;28;20032;-57
2022/01/31 01:49:07;;;;;;;10.47;3.80;;;;;;;;;;5093474;28;20103;-55
2022/01/31 01:51:33;;;;;;;11.13;3.20;;;;;;;;;;5093732;28;20055;-56
2022/01/31 01:53:59;;;;;;;11.20;4.43;;;;;;;;;;5104856;28;20028;-58
2022/01/31 01:56:27;;;;;;;15.77;4.80;;;;;;;;;;5114019;28;20027;-57
2022/01/31 01:58:53;;;;;;;11.30;3.83;;;;;;;;;;5113667;28;20393;-57
2022/01/31 02:01:19;;;;;;;8.53;5.07;;;;;;;;;;5114125;28;20031;-54
2022/01/31 02:03:45;;;;;;;7.00;3.33;;;;;;;;;;5114077;28;20031;-53
2022/01/31 02:06:11;;;;;;;8.87;4.03;;;;;;;;;;5114055;28;20385;-57
2022/01/31 02:08:43;;;;;;;4.23;2.70;;;;;;;;;;5096108;28;20036;-58
2022/01/31 02:11:12;;;;;;;7.93;3.33;;;;;;;;;;5093654;28;20374;-58
2022/01/31 02:13:38;;;;;;;7.87;3.50;;;;;;;;;;5093578;28;20157;-58
2022/01/31 02:16:05;;;;;;;7.77;4.33;;;;;;;;;;5093468;28;20027;-56
2022/01/31 02:18:31;;;;;;;9.53;4.90;;;;;;;;;;5092866;28;20064;-57
2022/01/31 02:20:58;;;;;;;11.03;4.27;;;;;;;;;;5093092;28;20120;-56
2022/01/31 02:23:24;;;;;;;8.57;3.63;;;;;;;;;;5093595;28;20031;-56
2022/01/31 02:25:54;;;;;;;10.07;4.30;;;;;;;;;;5093446;28;20473;-58
2022/01/31 02:28:21;;;;;;;10.90;4.97;;;;;;;;;;5092730;28;20028;-57
2022/01/31 02:30:47;;;;;;;12.30;5.00;;;;;;;;;;5093261;28;20052;-57
2022/01/31 02:33:13;;;;;;;4.93;3.40;;;;;;;;;;5093064;28;20100;-57
2022/01/31 02:35:39;;;;;;;12.57;5.27;;;;;;;;;;5093001;28;20457;-58
2022/01/31 02:38:05;;;;;;;10.17;3.73;;;;;;;;;;5092176;28;20105;-55
2022/01/31 02:40:32;;;;;;;5.73;3.37;;;;;;;;;;5092895;28;20127;-58
2022/01/31 02:42:58;;;;;;;6.53;3.43;;;;;;;;;;5092951;28;20034;-57
2022/01/31 02:45:24;;;;;;;3.80;3.20;;;;;;;;;;5093011;28;20024;-57
2022/01/31 02:47:54;;;;;;;9.30;4.37;;;;;;;;;;5092798;28;20024;-58
2022/01/31 02:50:20;;;;;;;8.93;2.97;;;;;;;;;;5093074;28;20118;-57
2022/01/31 02:52:49;;;;;;;6.03;3.30;;;;;;;;;;5094666;28;20069;-58
2022/01/31 02:55:18;;;;;;;5.43;3.17;;;;;;;;;;5113225;27;20055;-57
2022/01/31 02:57:44;;;;;;;5.40;4.10;;;;;;;;;;5112794;28;20020;-57
2022/01/31 03:00:12;;;;;;;7.67;3.57;;;;;;;;;;5112695;28;20541;-57
2022/01/31 03:02:39;;;;;;;6.93;3.73;;;;;;;;;;5112741;28;20082;-57
2022/01/31 03:05:05;;;;;;;9.07;3.73;;;;;;;;;;5113065;28;20032;-57
2022/01/31 03:07:31;;;;;;;5.80;3.00;;;;;;;;;;5105134;28;20027;-56
2022/01/31 03:09:57;;;;;;;8.97;3.83;;;;;;;;;;5091899;28;20032;-57
2022/01/31 03:12:23;;;;;;;8.80;4.60;;;;;;;;;;5092464;28;20024;-55
2022/01/31 03:14:49;;;;;;;4.27;2.77;;;;;;;;;;5092556;28;20027;-54
2022/01/31 03:17:15;;;;;;;5.23;3.70;;;;;;;;;;5092260;28;20024;-56
2022/01/31 03:19:42;;;;;;;17.87;4.40;;;;;;;;;;5092033;28;20387;-53
2022/01/31 03:22:09;;;;;;;4.87;3.00;;;;;;;;;;5092482;28;20043;-58
2022/01/31 03:24:35;;;;;;;4.20;3.43;;;;;;;;;;5092431;28;20107;-54
2022/01/31 03:27:02;;;;;;;7.23;4.53;;;;;;;;;;5092481;28;20031;-55
2022/01/31 03:29:29;;;;;;;6.87;3.80;;;;;;;;;;5092283;28;20107;-56
2022/01/31 03:31:54;;;;;;;12.20;3.50;;;;;;;;;;5091989;28;20032;-58
2022/01/31 03:34:20;;;;;;;6.23;3.77;;;;;;;;;;5092585;28;20026;-56
2022/01/31 03:36:47;;;;;;;3.83;3.17;;;;;;;;;;5092377;28;20032;-55
2022/01/31 03:39:12;;;;;;;12.67;5.97;;;;;;;;;;5091500;28;20453;-55
2022/01/31 03:41:38;;;;;;;9.07;3.93;;;;;;;;;;5092134;28;20051;-54
2022/01/31 03:44:04;;;;;;;5.93;3.57;;;;;;;;;;5092263;28;20026;-57
2022/01/31 03:46:33;;;;;;;10.30;3.83;;;;;;;;;;5092080;28;20028;-56
2022/01/31 03:48:59;;;;;;;9.70;4.40;;;;;;;;;;5091669;28;20039;-57
2022/01/31 03:51:25;;;;;;;10.03;3.30;;;;;;;;;;5092326;28;20394;-56
2022/01/31 03:53:51;;;;;;;7.30;4.57;;;;;;;;;;5103127;28;20028;-56
2022/01/31 03:56:17;;;;;;;7.73;4.63;;;;;;;;;;5112363;28;20076;-57
2022/01/31 03:58:43;;;;;;;7.80;4.30;;;;;;;;;;5111637;28;20111;-55
2022/01/31 04:01:09;;;;;;;8.40;4.60;;;;;;;;;;5111894;28;20369;-54
2022/01/31 04:03:35;;;;;;;5.63;3.90;;;;;;;;;;5112415;28;20058;-57
2022/01/31 04:06:01;;;;;;;9.73;4.83;;;;;;;;;;5112346;28;20034;-55
2022/01/31 04:08:27;;;;;;;8.43;4.00;;;;;;;;;;5095921;28;20024;-57
2022/01/31 04:10:53;;;;;;;8.47;4.93;;;;;;;;;;5091822;28;20038;-56
2022/01/31 04:13:19;;;;;;;6.73;4.17;;;;;;;;;;5091659;28;20059;-58
2022/01/31 04:15:45;;;;;;;8.37;3.07;;;;;;;;;;5091732;28;20024;-56
2022/01/31 04:18:11;;;;;;;9.37;4.70;;;;;;;;;;5094137;28;20039;-56
2022/01/31 04:20:37;;;;;;;5.53;3.30;;;;;;;;;;5095709;28;20118;-57
2022/01/31 04:23:11;;;;;;;8.30;3.83;;;;;;;;;;5095567;28;20098;-56
2022/01/31 04:25:52;;;;;;;8.03;3.27;;;;;;;;;;5095509;28;20107;-55
2022/01/31 04:30:53;;;;;;;10.03;4.40;;;;;;;;;;5090949;28;20036;-56
2022/01/31 04:33:20;;;;;;;8.67;4.77;;;;;;;;;;5095430;28;20028;-56
2022/01/31 04:35:46;;;;;;;7.67;3.80;;;;;;;;;;5095929;28;20043;-57
2022/01/31 04:38:12;;;;;;;6.73;5.37;;;;;;;;;;5094712;28;20043;-57
2022/01/31 04:40:38;;;;;;;7.10;3.77;;;;;;;;;;5094980;28;20034;-57
2022/01/31 04:43:04;;;;;;;5.67;4.27;;;;;;;;;;5095255;28;20028;-56
2022/01/31 04:45:30;;;;;;;6.07;4.47;;;;;;;;;;5095490;28;20406;-56
2022/01/31 04:47:56;;;;;;;7.57;4.50;;;;;;;;;;5094607;28;20125;-57
2022/01/31 04:50:22;;;;;;;7.63;4.70;;;;;;;;;;5095308;28;20544;-58
2022/01/31 04:52:48;;;;;;;14.20;4.63;;;;;;;;;;5097096;28;20054;-57
2022/01/31 04:55:14;;;;;;;9.30;4.40;;;;;;;;;;5115351;28;20024;-57
2022/01/31 04:57:41;;;;;;;9.40;4.10;;;;;;;;;;5115414;28;20020;-57
2022/01/31 05:00:09;;;;;;;7.97;3.93;;;;;;;;;;5114931;28;20050;-54
2022/01/31 05:02:35;;;;;;;10.83;4.00;;;;;;;;;;5115255;28;20122;-58
2022/01/31 05:05:01;;;;;;;5.77;3.50;;;;;;;;;;5115312;28;20020;-57
2022/01/31 05:07:27;;;;;;;4.40;3.07;;;;;;;;;;5107957;28;20024;-56
2022/01/31 05:09:53;;;;;;;10.10;4.20;;;;;;;;;;5093945;28;20134;-55
2022/01/31 05:12:19;;;;;;;11.77;5.03;;;;;;;;;;5094707;28;20111;-57
2022/01/31 05:14:45;;;;;;;6.93;3.27;;;;;;;;;;5093354;28;20481;-57
2022/01/31 05:17:11;;;;;;;8.67;3.73;;;;;;;;;;5094927;28;20108;-58
2022/01/31 05:19:37;;;;;;;10.10;4.47;;;;;;;;;;5093876;28;20058;-57
2022/01/31 05:22:03;;;;;;;9.03;3.80;;;;;;;;;;5094586;28;20459;-57
2022/01/31 05:24:30;;;;;;;5.30;2.93;;;;;;;;;;5094203;28;20103;-54
2022/01/31 05:26:56;;;;;;;7.37;4.07;;;;;;;;;;5094613;28;20020;-53
2022/01/31 05:29:22;;;;;;;7.77;3.83;;;;;;;;;;5092654;28;20024;-58
2022/01/31 05:31:49;;;;;;;9.60;3.87;;;;;;;;;;5092675;28;20066;-55
2022/01/31 05:34:15;;;;;;;15.83;3.80;;;;;;;;;;5094117;28;20028;-56
2022/01/31 05:36:42;;;;;;;5.57;2.87;;;;;;;;;;5093995;28;20371;-57
2022/01/31 05:39:08;;;;;;;7.90;3.53;;;;;;;;;;5093602;28;20035;-57
2022/01/31 05:41:34;;;;;;;16.13;4.90;;;;;;;;;;5093986;28;20060;-57
2022/01/31 05:44:00;;;;;;;8.67;3.20;;;;;;;;;;5094169;28;20117;-58
2022/01/31 05:46:26;;;;;;;7.83;3.40;;;;;;;;;;5094036;28;20032;-55
2022/01/31 05:48:53;;;;;;;8.57;3.20;;;;;;;;;;5093245;28;20035;-57
2022/01/31 05:51:21;;;;;;;10.00;3.83;;;;;;;;;;5093929;28;20035;-56
2022/01/31 05:53:48;;;;;;;5.83;3.43;;;;;;;;;;5104533;28;20480;-58
2022/01/31 05:56:14;;;;;;;4.53;2.20;;;;;;;;;;5114222;28;20118;-57
2022/01/31 05:58:41;;;;;;;7.97;3.90;;;;;;;;;;5113760;27;20369;-58
2022/01/31 06:01:07;;;;;;;3.60;2.87;;;;;;;;;;5114125;28;20054;-57
2022/01/31 06:03:33;;;;;;;5.20;3.60;;;;;;;;;;5114026;28;20031;-58
2022/01/31 06:05:59;;;;;;;7.47;2.33;;;;;;;;;;5113792;28;20454;-57
2022/01/31 06:08:25;;;;;;;5.23;3.07;;;;;;;;;;5097912;27;20056;-58
2022/01/31 06:10:52;;;;;;;8.50;3.43;;;;;;;;;;5093885;28;20411;-54
2022/01/31 06:13:27;;;;;;;8.60;3.07;;;;;;;;;;5093321;28;20077;-55
2022/01/31 06:15:53;;;;;;;9.33;3.13;;;;;;;;;;5093437;28;20028;-53
2022/01/31 06:18:19;;;;;;;6.80;3.40;;;;;;;;;;5092683;28;20027;-56
2022/01/31 06:20:45;;;;;;;14.93;4.90;;;;;;;;;;5093084;28;20141;-56
2022/01/31 06:23:12;;;;;;;4.03;2.33;;;;;;;;;;5093308;28;20043;-54
2022/01/31 06:25:38;;;;;;;8.83;2.90;;;;;;;;;;5093234;28;20028;-57
2022/01/31 06:28:05;;;;;;;6.63;3.30;;;;;;;;;;5092654;28;20034;-54
2022/01/31 06:30:31;;;;;;;9.63;3.47;;;;;;;;;;5091785;28;20521;-55
2022/01/31 06:32:58;;;;;;;10.63;2.57;;;;;;;;;;5092828;28;20032;-55
2022/01/31 06:35:24;;;;;;;7.63;3.10;;;;;;;;;;5092890;28;20457;-55
2022/01/31 06:37:51;;;;;;;6.70;3.30;;;;;;;;;;5092646;28;20028;-56
2022/01/31 06:40:17;;;;;;;6.67;2.90;;;;;;;;;;5092610;28;20024;-56
2022/01/31 06:42:43;;;;;;;5.83;3.00;;;;;;;;;;5092916;28;20032;-56
2022/01/31 06:45:09;;;;;;;5.37;2.57;;;;;;;;;;5092628;28;20026;-58
2022/01/31 06:47:35;;;;;;;9.93;3.43;;;;;;;;;;5092794;28;20444;-57
2022/01/31 06:50:04;;;;;;;7.37;2.83;;;;;;;;;;5092295;28;20389;-54
2022/01/31 06:52:33;;;;;;;9.60;3.23;;;;;;;;;;5092751;28;20442;-54
2022/01/31 06:55:02;;;;;;;5.20;2.90;;;;;;;;;;5072754;28;20082;-54
2022/01/31 06:57:33;;;;;;;5.47;2.83;;;;;;;;;;5072600;28;20056;-54
2022/01/31 06:59:59;;;;;;;8.73;3.60;;;;;;;;;;5071568;28;20028;-55
2022/01/31 07:02:25;;;;;;;3.60;2.73;;;;;;;;;;5072610;28;20451;-55
2022/01/31 07:04:51;;;;;;;5.43;3.77;;;;;;;;;;5072257;28;20027;-57
2022/01/31 07:07:17;;;;;;;6.50;2.77;;;;;;;;;;5077853;28;20024;-56
2022/01/31 07:09:43;;;;;;;5.23;3.67;;;;;;;;;;5091844;28;20028;-57
2022/01/31 07:12:12;;;;;;;5.30;2.83;;;;;;;;;;5092389;28;20103;-57
2022/01/31 07:14:38;;;;;;;7.37;3.80;;;;;;;;;;5091929;28;20051;-57
2022/01/31 07:17:06;;;;;;;10.40;3.70;;;;;;;;;;5092738;28;20459;-55
2022/01/31 07:19:35;;;;;;;7.27;2.90;;;;;;;;;;5091737;28;20028;-56
2022/01/31 07:22:04;;;;;;;6.60;3.63;;;;;;;;;;5092408;28;20019;-55
2022/01/31 07:27:01;;;;;;;4.70;2.50;;;;;;;;;;5092443;28;20062;-53
2022/01/31 07:29:29;;;;;;;9.93;4.33;;;;;;;;;;5091582;28;20024;-57
2022/01/31 07:31:55;;;;;;;5.43;3.47;;;;;;;;;;5089800;28;20438;-57
2022/01/31 07:34:22;;;;;;;11.67;3.27;;;;;;;;;;5092123;28;20362;-55
2022/01/31 07:36:48;;;;;;;10.30;4.13;;;;;;;;;;5092426;28;20032;-58
2022/01/31 07:39:14;;;;;;;5.27;3.37;;;;;;;;;;5091627;28;20427;-55
2022/01/31 07:41:40;;;;;;;6.17;3.57;;;;;;;;;;5091994;28;20163;-56
2022/01/31 07:44:06;;;;;;;6.33;3.27;;;;;;;;;;5092048;28;20028;-56
2022/01/31 07:46:32;;;;;;;4.67;2.37;;;;;;;;;;5092383;28;20039;-54
2022/01/31 07:48:58;;;;;;;7.10;3.53;;;;;;;;;;5091576;28;20020;-56
2022/01/31 07:51:24;;;;;;;8.10;3.70;;;;;;;;;;5092236;28;20054;-56
2022/01/31 07:53:50;;;;;;;6.30;3.47;;;;;;;;;;5096194;28;20120;-57
2022/01/31 07:56:17;;;;;;;10.67;4.20;;;;;;;;;;5096149;28;20108;-56
2022/01/31 07:58:43;;;;;;;3.67;2.67;;;;;;;;;;5095295;28;20419;-54
2022/01/31 08:01:10;;;;;;;5.90;2.63;;;;;;;;;;5095926;28;20040;-57
2022/01/31 08:03:36;;;;;;;3.63;3.33;;;;;;;;;;5096388;28;20118;-56
2022/01/31 08:06:02;;;;;;;3.67;2.50;;;;;;;;;;5096018;28;20035;-57
2022/01/31 08:08:29;;;;;;;3.40;2.67;;;;;;;;;;5095171;28;20032;-56
2022/01/31 08:10:58;;;;;;;7.17;2.77;;;;;;;;;;5095705;28;20029;-58
2022/01/31 08:13:27;;;;;;;7.07;3.33;;;;;;;;;;5095954;28;20020;-56
2022/01/31 08:18:35;;;;;;;4.60;1.87;;;;;;;;;;5095337;28;20154;-55
2022/01/31 08:21:04;;;;;;;2.50;1.70;;;;;;;;;;5095685;28;20301;-54
2022/01/31 08:23:31;;;;;;;2.10;1.40;;;;;;;;;;5095363;28;20097;-54
2022/01/31 08:25:59;;;;;;;4.27;1.63;;;;;;;;;;5095483;28;20521;-55
2022/01/31 08:28:36;;;;;;;2.57;1.67;;;;;;;;;;5095041;28;20035;-56
2022/01/31 08:31:08;;;;;;;3.23;1.70;;;;;;;;;;5093074;28;20118;-58
2022/01/31 08:33:43;;;;;;;6.93;1.90;;;;;;;;;;5095440;28;20385;-56
2022/01/31 08:36:09;;;;;;;4.17;1.63;;;;;;;;;;5095426;28;20036;-55
2022/01/31 08:38:36;;;;;;;2.43;1.47;;;;;;;;;;5094649;28;20028;-55
2022/01/31 08:41:02;;;;;;;2.40;1.30;;;;;;;;;;5094877;28;20119;-55
2022/01/31 08:43:28;;;;;;;2.73;1.40;;;;;;;;;;5095105;28;20111;-57
2022/01/31 08:45:56;;;;;;;5.93;1.60;;;;;;;;;;5095053;28;20052;-56
2022/01/31 08:48:23;;;;;;;2.50;1.30;;;;;;;;;;5094494;28;20491;-57
2022/01/31 08:50:49;;;;;;;1.47;0.77;;;;;;;;;;5095337;28;20089;-54
2022/01/31 08:53:15;;;;;;;1.33;0.93;;;;;;;;;;5095129;28;20024;-56
2022/01/31 08:55:45;;;;;;;1.60;0.60;;;;;;;;;;5095197;28;20090;-57
2022/01/31 08:58:11;;;;;;;1.60;0.77;;;;;;;;;;5091085;28;20055;-54
2022/01/31 09:00:37;;;;;;;0.83;0.47;;;;;;;;;;5092574;28;20082;-56
2022/01/31 09:05:50;;;;;;;1.97;0.67;;;;;;;;;;5081052;28;20277;-54
2022/01/31 09:08:16;;;;;;;1.43;0.73;;;;;;;;;;5089954;28;20067;-57
2022/01/31 09:10:43;;;;;;;2.47;1.13;;;;;;;;;;5092869;28;20497;-56
2022/01/31 09:13:12;;;;;;;1.47;0.60;;;;;;;;;;5092730;28;20105;-55
2022/01/31 09:15:38;;;;;;;2.27;1.03;;;;;;;;;;5093807;28;20055;-55
2022/01/31 09:18:04;;;;;;;1.95;0.80;;;;;;;;;;5094088;28;20079;-54
2022/01/31 09:20:30;;;;;;;1.42;0.63;;;;;;;;;;5094708;28;20032;-53
2022/01/31 09:22:55;;;;;;;1.50;0.63;;;;;;;;;;5095017;28;20035;-55
2022/01/31 09:25:24;;;;;;;1.80;0.82;;;;;;;;;;5094629;28;20481;-56
2022/01/31 09:27:50;;;;;;;2.80;0.77;;;;;;;;;;5093836;28;20032;-57
2022/01/31 09:30:18;;;;;;;2.63;0.90;;;;;;;;;;5094246;28;20085;-55
2022/01/31 09:32:44;;;;;;;3.67;1.17;;;;;;;;;;5094196;28;20035;-54
2022/01/31 09:35:10;;;;;;;2.05;1.08;;;;;;;;;;5094301;28;20032;-58
2022/01/31 09:37:36;;;;;;;1.90;0.70;;;;;;;;;;5094278;28;20103;-57
2022/01/31 09:40:04;;;;;;;5.85;1.08;;;;;;;;;;5093521;28;20031;-57
2022/01/31 09:42:39;;;;;;;1.27;0.52;;;;;;;;;;5093865;28;20035;-56
2022/01/31 09:45:17;;;;;;;1.17;0.63;;;;;;;;;;5094177;28;20534;-58
2022/01/31 09:50:27;;;;;;;6.53;1.27;;;;;;;;;;5094226;28;20035;-56
2022/01/31 09:52:54;;;;;;;1.38;0.88;;;;;;;;;;5093709;28;20105;-58
2022/01/31 09:55:21;;;;;;;5.45;1.27;;;;;;;;;;5094161;28;20036;-56
2022/01/31 09:57:48;;;;;;;1.42;0.70;;;;;;;;;;5093201;28;20032;-53
2022/01/31 10:00:14;;;;;;;1.20;0.80;;;;;;;;;;5093921;28;20036;-55
2022/01/31 10:02:40;;;;;;;2.15;0.80;;;;;;;;;;5093563;28;20040;-52
2022/01/31 10:05:06;;;;;;;2.38;0.93;;;;;;;;;;5093706;28;20028;-55
2022/01/31 10:07:45;;;;;;;1.15;0.95;;;;;;;;;;5091584;28;20028;-56
2022/01/31 10:10:21;;;;;;;3.53;2.15;;;;;;;;;;5093721;28;20043;-58
2022/01/31 10:18:08;;;;;;;1.80;0.80;;;;;;;;;;5092569;28;20412;-58
2022/01/31 10:20:35;;;;;;;3.47;1.23;;;;;;;;;;5093154;28;20465;-57
2022/01/31 10:23:07;;;;;;;4.35;1.77;;;;;;;;;;5093296;28;20035;-55
2022/01/31 10:25:34;;;;;;;2.70;1.33;;;;;;;;;;5093305;28;20028;-55
2022/01/31 10:28:00;;;;;;;2.53;1.13;;;;;;;;;;5092468;28;20059;-55
2022/01/31 10:30:30;;;;;;;2.15;0.90;;;;;;;;;;5093108;28;20027;-55
2022/01/31 10:32:58;;;;;;;4.93;1.23;;;;;;;;;;5093196;28;20107;-57
2022/01/31 10:35:24;;;;;;;1.27;0.75;;;;;;;;;;5093069;28;20028;-56
2022/01/31 10:37:55;;;;;;;1.77;1.10;;;;;;;;;;5092413;28;20027;-57
2022/01/31 10:46:10;;;;;;;1.63;1.20;;;;;;;;;;5093347;28;20308;-57
2022/01/31 10:53:47;;;;;;;1.75;0.75;;;;;;;;;;5092780;28;20032;-57
2022/01/31 10:56:13;;;;;;;;;;;;;;;;;;5093424;28;20081;-57
2022/01/31 10:58:59;;;;;;;6.43;1.42;;;;;;;;;;5092139;28;19904;-56
2022/01/31 11:01:25;;;;;;;5.72;1.70;;;;;;;;;;5092699;28;20358;-58
2022/01/31 11:03:51;;;;;;;1.35;0.73;;;;;;;;;;5092137;28;20038;-58
2022/01/31 11:06:19;;;;;;;3.40;1.17;;;;;;;;;;5092852;28;20023;-55
2022/01/31 11:08:45;;;;;;;3.28;1.48;;;;;;;;;;5089975;28;20042;-58
2022/01/31 11:11:12;;;;;;;4.38;1.33;;;;;;;;;;5092590;28;20028;-58
2022/01/31 11:13:38;;;;;;;2.63;0.80;;;;;;;;;;5092463;28;20028;-58
2022/01/31 11:16:06;;;;;;;3.67;1.35;;;;;;;;;;5092598;28;20428;-58
2022/01/31 11:18:33;;;;;;;2.63;0.90;;;;;;;;;;5091610;28;20071;-58
2022/01/31 11:21:03;;;;;;;2.80;1.10;;;;;;;;;;5092446;28;20068;-58
2022/01/31 11:23:32;;;;;;;4.82;1.38;;;;;;;;;;5092446;28;20020;-55
2022/01/31 11:26:00;;;;;;;2.97;0.65;;;;;;;;;;5092413;28;20035;-56
2022/01/31 11:28:29;;;;;;;2.22;0.88;;;;;;;;;;5091627;28;20024;-57
2022/01/31 11:30:55;;;;;;;2.38;1.50;;;;;;;;;;5092159;28;20035;-55
2022/01/31 11:33:21;;;;;;;3.78;1.05;;;;;;;;;;5092374;28;20481;-57
2022/01/31 11:35:48;;;;;;;4.15;0.70;;;;;;;;;;5092483;28;20110;-57
2022/01/31 11:38:15;;;;;;;1.85;0.63;;;;;;;;;;5091570;28;20081;-57
2022/01/31 11:40:41;;;;;;;5.40;1.60;;;;;;;;;;5092312;28;20164;-57
2022/01/31 11:43:08;;;;;;;2.03;1.35;;;;;;;;;;5092176;28;20070;-57
2022/01/31 11:45:35;;;;;;;2.83;1.15;;;;;;;;;;5091985;28;20051;-56
2022/01/31 11:48:06;;;;;;;3.33;1.35;;;;;;;;;;5091382;28;20538;-57
2022/01/31 11:50:32;;;;;;;2.13;1.00;;;;;;;;;;5091940;28;20038;-55
2022/01/31 11:53:00;;;;;;;1.17;0.60;;;;;;;;;;5092063;28;20016;-57
2022/01/31 11:55:29;;;;;;;2.72;0.95;;;;;;;;;;5092051;28;20466;-56
2022/01/31 11:57:57;;;;;;;1.45;0.73;;;;;;;;;;5091270;28;20528;-57
2022/01/31 12:00:24;;;;;;;2.30;1.05;;;;;;;;;;5092112;28;20070;-57
2022/01/31 12:02:51;;;;;;;4.03;0.90;;;;;;;;;;5091578;28;20020;-55
2022/01/31 12:05:26;;;;;;;1.67;0.57;;;;;;;;;;5086580;28;20451;-55
2022/01/31 12:08:01;;;;;;;1.48;0.88;;;;;;;;;;5079301;28;20024;-52
2022/01/31 12:10:33;;;;;;;2.30;0.90;;;;;;;;;;5091047;28;20028;-54
2022/01/31 12:13:11;;;;;;;1.60;0.80;;;;;;;;;;5091284;28;20418;-55
2022/01/31 12:15:48;;;;;;;0.93;0.60;;;;;;;;;;5091535;28;20462;-55
2022/01/31 12:24:11;;;;;;;2.28;0.77;;;;;;;;;;5091832;28;20093;-54
2022/01/31 12:26:50;;;;;;;2.97;0.82;;;;;;;;;;5092066;28;20028;-57
2022/01/31 12:29:18;;;;;;;2.27;1.03;;;;;;;;;;5091082;28;20057;-55
2022/01/31 12:31:49;;;;;;;1.83;1.15;;;;;;;;;;5091910;28;20297;-57
2022/01/31 12:34:15;;;;;;;;;;;;;;;;;;5091988;28;20068;-57
2022/01/31 12:36:41;;;;;;;2.08;0.75;;;;;;;;;;5091569;28;20329;-55
2022/01/31 12:39:25;;;;;;;0.70;0.30;;;;;;;;;;5093403;28;20020;-57
2022/01/31 12:41:59;;;;;;;3.05;0.85;;;;;;;;;;5095011;28;20043;-58
2022/01/31 12:44:34;;;;;;;1.70;1.30;;;;;;;;;;5092977;28;20029;-57
2022/01/31 12:47:06;;;;;;;4.00;0.90;;;;;;;;;;5093344;28;20465;-58
2022/01/31 12:49:32;;;;;;;5.78;1.00;;;;;;;;;;5093318;28;20024;-58
2022/01/31 12:52:03;;;;;;;4.80;0.70;;;;;;;;;;5094498;28;20029;-57
2022/01/31 12:54:29;;;;;;;;;;;;;;;;;;5095023;28;20020;-56
2022/01/31 12:56:55;;;;;;;1.63;1.05;;;;;;;;;;5095276;28;19908;-58
2022/01/31 12:59:22;;;;;;;8.45;1.90;;;;;;;;;;5094507;28;20028;-56
2022/01/31 13:01:49;;;;;;;2.45;0.60;;;;;;;;;;5094919;28;20129;-54
2022/01/31 13:04:22;;;;;;;1.90;0.55;;;;;;;;;;5094789;28;20420;-58
2022/01/31 13:06:49;;;;;;;2.65;1.05;;;;;;;;;;5094409;28;20024;-57
2022/01/31 13:09:15;;;;;;;1.23;0.65;;;;;;;;;;5094250;28;20024;-57
2022/01/31 13:11:43;;;;;;;2.00;0.88;;;;;;;;;;5094885;28;20367;-57
2022/01/31 13:14:21;;;;;;;2.95;1.42;;;;;;;;;;5094651;28;20107;-57
2022/01/31 13:16:58;;;;;;;2.77;1.07;;;;;;;;;;5094652;28;20055;-56
2022/01/31 13:19:25;;;;;;;1.48;0.80;;;;;;;;;;5093786;28;20069;-56
2022/01/31 13:21:51;;;;;;;1.92;1.17;;;;;;;;;;5094417;28;20039;-52
2022/01/31 13:24:18;;;;;;;3.45;1.95;;;;;;;;;;5094456;28;20084;-54
2022/01/31 13:26:48;;;;;;;2.42;1.33;;;;;;;;;;5094546;28;20058;-53
2022/01/31 13:29:26;;;;;;;2.43;1.27;;;;;;;;;;5093939;28;20031;-55
2022/01/31 13:31:51;;;;;;;1.65;0.93;;;;;;;;;;5094262;28;20048;-54
2022/01/31 13:34:34;;;;;;;3.83;1.10;;;;;;;;;;5094495;28;20028;-52
2022/01/31 13:37:00;;;;;;;4.40;1.38;;;;;;;;;;5094436;28;20085;-54
2022/01/31 13:39:26;;;;;;;5.05;1.45;;;;;;;;;;5093472;28;20028;-57
2022/01/31 13:41:52;;;;;;;3.35;0.90;;;;;;;;;;5093971;28;20044;-53
2022/01/31 13:44:21;;;;;;;9.68;2.05;;;;;;;;;;5093625;28;20107;-53
2022/01/31 13:46:51;;;;;;;1.55;1.17;;;;;;;;;;5093946;28;20031;-54
2022/01/31 13:49:23;;;;;;;3.53;1.13;;;;;;;;;;5092515;28;20097;-56
2022/01/31 13:51:50;;;;;;;5.50;1.53;;;;;;;;;;5094068;28;20054;-54
2022/01/31 13:54:20;;;;;;;2.17;1.15;;;;;;;;;;5093644;28;20031;-55
2022/01/31 13:56:50;;;;;;;3.88;0.82;;;;;;;;;;5093717;28;20542;-57
2022/01/31 13:59:17;;;;;;;3.13;1.15;;;;;;;;;;5093732;28;20111;-55
2022/01/31 14:01:43;;;;;;;5.38;0.95;;;;;;;;;;5093434;28;20081;-54
2022/01/31 14:04:10;;;;;;;2.75;1.25;;;;;;;;;;5094056;28;20378;-53
2022/01/31 14:06:37;;;;;;;2.15;1.02;;;;;;;;;;5093713;28;20053;-56
2022/01/31 14:09:06;;;;;;;1.85;0.47;;;;;;;;;;5072971;28;20020;-54
2022/01/31 14:11:40;;;;;;;3.83;1.00;;;;;;;;;;5073122;28;20434;-54
2022/01/31 14:14:06;;;;;;;1.48;0.75;;;;;;;;;;5073327;28;20091;-55
2022/01/31 14:16:36;;;;;;;1.10;0.70;;;;;;;;;;5073493;28;20029;-55
2022/01/31 14:19:07;;;;;;;2.22;0.68;;;;;;;;;;5072653;28;20037;-54
2022/01/31 14:21:34;;;;;;;1.95;0.70;;;;;;;;;;5073090;28;20063;-53
2022/01/31 14:24:01;;;;;;;2.80;1.02;;;;;;;;;;5072841;28;20092;-55
2022/01/31 14:26:33;;;;;;;1.20;0.60;;;;;;;;;;5073353;28;20028;-52
2022/01/31 14:28:59;;;;;;;2.53;0.63;;;;;;;;;;5072393;28;20029;-56
2022/01/31 14:31:30;;;;;;;7.40;1.17;;;;;;;;;;5073018;28;20615;-55
2022/01/31 14:33:56;;;;;;;1.90;1.05;;;;;;;;;;5072746;28;20350;-56
2022/01/31 14:36:23;;;;;;;2.55;0.73;;;;;;;;;;5073103;28;20362;-55
2022/01/31 14:38:58;;;;;;;1.48;0.55;;;;;;;;;;5072318;28;20028;-56
2022/01/31 14:41:36;;;;;;;1.17;0.50;;;;;;;;;;5072736;28;20033;-57
2022/01/31 14:47:16;;;;;;;3.08;0.88;;;;;;;;;;5072670;28;20028;-55
2022/01/31 14:49:42;;;;;;;2.90;1.43;;;;;;;;;;5072099;28;20032;-57
2022/01/31 14:52:09;;;;;;;2.80;1.73;;;;;;;;;;5072786;28;20020;-56
2022/01/31 14:54:38;;;;;;;9.73;1.65;;;;;;;;;;5106493;28;20016;-57
2022/01/31 14:57:04;;;;;;;2.55;0.82;;;;;;;;;;5113082;28;20056;-57
2022/01/31 14:59:30;;;;;;;2.28;0.73;;;;;;;;;;5112624;27;20102;-56
2022/01/31 15:01:56;;;;;;;2.08;1.02;;;;;;;;;;5112657;28;20050;-57
2022/01/31 15:04:24;;;;;;;2.60;0.70;;;;;;;;;;5113009;28;20157;-55
2022/01/31 15:06:50;;;;;;;1.27;0.53;;;;;;;;;;5111116;28;20036;-54
2022/01/31 15:09:17;;;;;;;2.08;1.10;;;;;;;;;;5091818;28;20485;-52
2022/01/31 15:11:44;;;;;;;1.93;0.93;;;;;;;;;;5092278;28;20024;-53
2022/01/31 15:14:10;;;;;;;2.47;0.70;;;;;;;;;;5092764;28;20473;-54
2022/01/31 15:16:37;;;;;;;1.30;0.95;;;;;;;;;;5092700;28;20085;-55
2022/01/31 15:19:03;;;;;;;4.37;0.87;;;;;;;;;;5092111;28;20031;-56
2022/01/31 15:21:33;;;;;;;4.10;0.82;;;;;;;;;;5092221;28;20077;-56
2022/01/31 15:23:59;;;;;;;1.70;1.08;;;;;;;;;;5092577;28;20435;-57